• Join FlightAware (Why Join?)
  • Login
  • US Flag 
03:44PM EST


 

Airport Tracker/Info


-or-


 

Live Flight TrackerFlight Track Log ✈ DAL1981 ✈ 01-Aug-2013 ✈ KSMF - KMSP

Flight Track Log - Related Links

Times and Time Zones

All times are in EDT time to prevent confusion due to time zone crossing. See the DAL1981 flight status page for this flight to view local times or setup timezone preferences in your user account.

Time Position Orientation Groundspeed Altitude Reporting Facility
EDT Latitude Longitude Course Direction KTS MPH feet Rate Location/Type
03:54PM 38.6500 -121.5667 76° East 163 188 1,700  Level Northern Cal TRACON
03:55PM 38.6167 -121.5000 123° Southeast 252 290 3,000 1,920 Climbing Northern Cal TRACON
03:56PM 38.5083 -121.2086 67° East  Level FlightAware Approximate
03:56PM 38.6167 -121.4000 90° East 278 320 5,600  Level Northern Cal TRACON
03:57PM 38.5465 -121.0341 76° East  Level FlightAware Approximate
03:58PM 38.5768 -120.8567 78° East  Level FlightAware Approximate
03:58PM 38.6378 -121.1981 82° East 301 346 10,500  Level Oakland Center
03:59PM 38.6075 -120.6794 76° East  Level FlightAware Approximate
03:59PM 38.6497 -121.0706 83° East 367 422 11,400  Level Oakland Center
04:00PM 38.6606 -120.9269 84° East 395 455 13,000 1,620 Climbing Oakland Center
04:01PM 38.6728 -120.7767 84° East 416 479 14,800 1,800 Climbing Oakland Center
04:02PM 38.6867 -120.5894 85° East 434 499 16,700 1,560 Climbing Oakland Center
04:03PM 38.6997 -120.4244 84° East 457 526 18,000 1,260 Climbing Oakland Center
04:04PM 38.7356 -120.2636 74° East 485 558 19,300 1,200 Climbing Oakland Center
04:05PM 38.8367 -120.1444 43° Northeast 492 566 20,500 1,080 Climbing Oakland Center
04:07PM 39.0394 -119.9008 43° Northeast 512 589 22,600 1,080 Climbing Salt Lake Center
04:08PM 39.1467 -119.7731 43° Northeast 522 601 23,800 900 Climbing Salt Lake Center
04:09PM 39.2572 -119.6419 43° Northeast 534 615 24,500 780 Climbing Salt Lake Center
04:10PM 39.3919 -119.4786 43° Northeast 547 629 25,500 900 Climbing Salt Lake Center
04:11PM 39.5081 -119.3392 43° Northeast 559 643 26,400 960 Climbing Oakland Center
04:12PM 39.6214 -119.1997 43° Northeast 557 641 27,500 960 Climbing Oakland Center
04:13PM 39.7375 -119.0597 43° Northeast 561 646 28,400 900 Climbing Oakland Center
04:14PM 39.8269 -118.8908 55° Northeast 563 648 29,400 960 Climbing Oakland Center
04:15PM 39.9006 -118.7106 62° Northeast 559 643 30,400 960 Climbing Oakland Center
04:16PM 39.9717 -118.5306 63° Northeast 557 641 31,400 960 Climbing Oakland Center
04:17PM 40.0433 -118.3550 62° Northeast 550 633 32,400 780 Climbing Oakland Center
04:18PM 40.1147 -118.1753 63° Northeast 552 635 33,000 240 Climbing Oakland Center
04:19PM 40.1856 -117.9981 62° Northeast 551 634 33,000  Level Oakland Center
04:20PM 40.2600 -117.8003 64° Northeast 552 635 33,000 60 Level Oakland Center
04:21PM 40.3208 -117.5944 69° East 543 625 33,200 480 Climbing Salt Lake Center
04:22PM 40.3742 -117.4178 68° East 544 626 34,100 900 Climbing Salt Lake Center
04:24PM 40.4347 -117.2144 69° East 536 617 35,100 720 Climbing Salt Lake Center
04:25PM 40.4872 -117.0394 68° East 532 612 35,700 540 Climbing Salt Lake Center
04:26PM 40.5392 -116.8592 69° East 535 616 36,300 600 Climbing Salt Lake Center
04:27PM 40.5994 -116.6536 69° East 532 612 37,000 300 Climbing Salt Lake Center
04:28PM 40.6494 -116.4800 69° East 528 608 37,000  Level Salt Lake Center
04:29PM 40.7075 -116.2742 70° East 534 615 37,000  Level Salt Lake Center
04:30PM 40.7581 -116.0961 69° East 540 621 37,000  Level Salt Lake Center
04:31PM 40.8183 -115.8881 69° East 542 624 37,000  Level Salt Lake Center
04:32PM 40.8656 -115.7089 71° East 540 621 37,000  Level Salt Lake Center
04:33PM 40.9258 -115.5025 69° East 539 620 37,000  Level Salt Lake Center
04:34PM 40.9744 -115.3264 70° East 535 616 37,000  Level Salt Lake Center
04:35PM 41.0272 -115.1183 71° East 535 616 37,000  Level Salt Lake Center
04:36PM 41.0792 -114.9414 69° East 537 618 37,000  Level Salt Lake Center
04:37PM 41.1267 -114.7611 71° East 538 619 37,000  Level Salt Lake Center
04:38PM 41.1761 -114.5728 71° East 541 623 37,000  Level Salt Lake Center
04:39PM 41.2364 -114.3469 70° East 542 624 37,000  Level Salt Lake Center
04:40PM 41.2867 -114.1575 70° East 544 626 37,000  Level Salt Lake Center
04:41PM 41.3367 -113.9683 71° East 543 625 37,000  Level Salt Lake Center
04:42PM 41.3853 -113.7783 71° East 543 625 37,000  Level Salt Lake Center
04:43PM 41.4339 -113.5894 71° East 540 621 37,000  Level Salt Lake Center
04:44PM 41.4817 -113.4011 71° East 538 619 37,000 -60 Level Salt Lake Center
04:45PM 41.5378 -113.1744 72° East 537 618 36,900  Descending Salt Lake Center
04:46PM 41.5861 -112.9825 71° East 543 625 37,000  Climbing Salt Lake Center
04:47PM 41.6347 -112.7911 71° East 544 626 37,000  Level Salt Lake Center
04:48PM 41.6814 -112.5986 72° East 543 625 37,000  Level Salt Lake Center
04:49PM 41.7289 -112.4086 71° East 539 620 37,000  Level Salt Lake Center
04:50PM 41.7756 -112.2169 72° East 539 620 37,000  Level Salt Lake Center
04:51PM 41.8200 -112.0272 72° East 535 616 37,000 -60 Level Salt Lake Center
04:52PM 41.8739 -111.8014 72° East 530 610 36,900  Descending Salt Lake Center
04:53PM 41.9192 -111.6117 72° East 532 612 37,000  Climbing Salt Lake Center
04:55PM 41.9644 -111.4222 72° East 532 612 37,000  Level Salt Lake Center
04:57PM 41.9983 -111.2559 75° East  Level FlightAware Approximate
04:59PM 42.1719 -110.6578 73° East 537 618 37,000  Level Salt Lake Center
05:00PM 42.2442 -110.4547 64° Northeast 537 618 37,000  Level Salt Lake Center
05:01PM 42.3053 -110.2783 65° Northeast 539 620 37,000  Level Salt Lake Center
05:02PM 42.3703 -110.0706 67° East 539 620 37,000  Level Salt Lake Center
05:03PM 42.4253 -109.8903 67° East 541 623 37,000  Level Salt Lake Center
05:04PM 42.1221 -110.6695 73° East  Level FlightAware Approximate
05:04PM 42.4886 -109.6789 68° East 542 624 37,000  Level Salt Lake Center
05:05PM 42.5403 -109.4964 69° East 541 623 37,000  Level Salt Lake Center
05:06PM 42.6056 -109.2853 67° East 541 623 37,000  Level Salt Lake Center
05:07PM 42.6597 -109.1017 68° East 545 627 37,000  Level Salt Lake Center
05:08PM 42.7125 -108.9208 68° East 540 621 37,100  Climbing Salt Lake Center
05:09PM 42.7742 -108.7081 68° East 541 623 37,000 -60 Descending Salt Lake Center
05:10PM 42.8261 -108.5281 68° East 537 618 37,000  Level Salt Lake Center
05:11PM 42.8869 -108.3142 69° East 540 621 37,000  Level Salt Lake Center
05:12PM 42.9525 -108.1417 63° Northeast 539 620 37,000  Level Salt Lake Center
05:13PM 43.0325 -107.9347 62° Northeast 537 618 37,000  Level Salt Lake Center
05:14PM 43.1017 -107.7536 62° Northeast 540 621 37,000  Level Salt Lake Center
05:15PM 43.1578 -107.5658 68° East 535 616 37,000  Level Salt Lake Center
05:16PM 43.1897 -107.3636 78° East 542 624 37,000  Level Salt Lake Center
05:17PM 43.2217 -107.1642 78° East 539 620 37,000  Level Salt Lake Center
05:18PM 43.2539 -106.9617 78° East 545 627 37,000  Level Salt Lake Center
05:19PM 43.2722 -106.8478 77° East 543 625 37,000  Level Denver Center
05:20PM 43.3078 -106.6214 78° East 544 626 37,000  Level Denver Center
05:21PM 43.3372 -106.4256 78° East 547 629 37,000  Level Denver Center
05:22PM 43.3719 -106.1986 78° East 544 626 37,000  Level Denver Center
05:23PM 43.4014 -106.0036 78° East 544 626 37,000  Level Denver Center
05:24PM 43.4353 -105.7758 78° East 544 626 37,000  Level Denver Center
05:25PM 43.4639 -105.5794 79° East 545 627 37,000  Level Denver Center
05:26PM 43.4958 -105.3517 79° East 543 625 37,000  Level Denver Center
05:27PM 43.5244 -105.1567 78° East 542 624 37,000  Level Denver Center
05:28PM 43.5547 -104.9278 80° East 542 624 37,000  Level Denver Center
05:29PM 43.5825 -104.7319 79° East 543 625 37,000  Level Denver Center
05:30PM 43.6139 -104.5353 78° East 544 626 37,000  Level Denver Center
05:31PM 43.6572 -104.3139 75° East 538 619 37,000  Level Denver Center
05:32PM 43.6947 -104.1233 75° East 536 617 37,000  Level Denver Center
05:33PM 43.7383 -103.8983 75° East 542 624 37,000  Level Denver Center
05:34PM 43.7800 -103.7072 73° East 542 624 37,000  Level Denver Center
05:35PM 43.8317 -103.4872 72° East 539 620 37,000  Level Denver Center
05:36PM 43.8786 -103.3017 71° East 535 616 37,000  Level Denver Center
05:37PM 43.9289 -103.0781 73° East 541 623 37,000  Level Denver Center
05:38PM 43.9731 -102.8897 72° East 539 620 37,000  Level Denver Center
05:40PM 44.0153 -102.7056 72° East 538 619 37,000  Level Denver Center
05:41PM 44.0747 -102.4733 70° East 534 615 37,000  Level Denver Center
05:42PM 44.1192 -102.2750 73° East 536 617 37,000  Level Denver Center
05:43PM 44.1672 -102.0794 71° East 535 616 37,000  Level Denver Center
05:44PM 44.2161 -101.8831 71° East 537 618 37,000  Level Denver Center
05:45PM 44.2672 -101.6900 70° East 534 615 37,000  Level Denver Center
05:46PM 44.3133 -101.4933 72° East 533 613 37,000  Level Denver Center
05:47PM 44.3678 -101.2581 72° East 532 612 37,000  Level Denver Center
05:48PM 44.4117 -101.0608 73° East 532 612 37,000  Level Denver Center
05:49PM 44.4406 -100.8586 79° East 530 610 37,000  Level Denver Center
05:50PM 44.4506 -100.6092 87° East 543 625 37,000  Level Minneapolis Center
05:51PM 44.4567 -100.4008 88° East 541 623 37,000  Level Minneapolis Center
05:52PM 44.4614 -100.1931 88° East 539 620 37,000  Level Minneapolis Center
05:53PM 44.4661 -99.9856 88° East 539 620 37,000  Level Minneapolis Center
05:54PM 44.4706 -99.7775 88° East 540 621 37,000  Level Minneapolis Center
05:55PM 44.4756 -99.5283 88° East 539 620 37,000  Level Minneapolis Center
05:56PM 44.4794 -99.3211 88° East 537 618 37,000  Level Minneapolis Center
05:57PM 44.4822 -99.1142 89° East 535 616 37,000  Level Minneapolis Center
05:59PM 44.4875 -98.6964 89° East 539 620 37,000  Level Minneapolis Center
06:00PM 44.4897 -98.4456 89° East 539 620 37,000  Level Minneapolis Center
06:01PM 44.4911 -98.2578 89° East 539 620 37,000  Level Minneapolis Center
06:02PM 44.4928 -98.0056 89° East 540 621 37,000  Level Minneapolis Center
06:03PM 44.5042 -97.7986 86° East 536 617 37,000  Level Minneapolis Center
06:04PM 44.5186 -97.5911 84° East 536 617 37,000  Level Minneapolis Center
06:06PM 44.5328 -97.3825 84° East 538 619 37,000  Level Minneapolis Center
06:07PM 44.5469 -97.1736 84° East 538 619 37,000  Level Minneapolis Center
06:08PM 44.5586 -96.9658 85° East 535 616 37,000  Level Minneapolis Center
06:09PM 44.5736 -96.7147 85° East 536 617 37,000  Level Minneapolis Center
06:10PM 44.5858 -96.5044 85° East 538 619 37,000  Level Minneapolis Center
06:11PM 44.5983 -96.2933 85° East 538 619 37,000 -180 Level Minneapolis Center
06:12PM 44.6092 -96.0817 86° East 539 620 36,700 -600 Descending Minneapolis Center
06:13PM 44.6208 -95.8725 85° East 535 616 35,800 -1,500 Descending Minneapolis Center
06:14PM 44.6306 -95.6661 86° East 529 609 33,700 -2,640 Descending Minneapolis Center
06:15PM 44.6400 -95.4583 86° East 532 612 30,400 -3,420 Descending Minneapolis Center
06:16PM 44.6522 -95.2103 86° East 532 612 26,700 -3,360 Descending Minneapolis Center
06:17PM 44.6606 -95.0056 87° East 527 606 23,500 -3,120 Descending Minneapolis Center
06:18PM 44.6692 -94.8025 87° East 524 603 20,300 -2,820 Descending Minneapolis Center
06:19PM 44.6761 -94.6303 87° East 505 581 17,700 -2,880 Descending Minneapolis Center
06:20PM 44.6839 -94.4122 87° East 463 533 14,400 -2,880 Descending Minneapolis Center
06:21PM 44.6908 -94.2414 87° East 440 506 11,700 -1,680 Descending Minneapolis Center
06:22PM 44.7094 -94.0789 81° East 424 488 11,000 -360 Descending Minneapolis Center
06:23PM 44.7456 -93.9208 72° East 424 488 11,000  Level Minneapolis Center
06:24PM 44.7811 -93.7631 72° East 422 486 11,000  Level Minneapolis Center
06:25PM 44.8158 -93.6047 73° East 423 487 11,000 -360 Level Minneapolis Center
06:26PM 44.8517 -93.4411 73° East 352 405 10,300 -1,200 Descending Minneapolis Center
06:27PM 44.8511 -93.3233 90° East 312 359 8,600 -1,380 Descending Minneapolis Center
06:28PM 44.7836 -93.2978 165° South 257 296 7,500 -1,260 Descending Minneapolis Center
06:29PM 44.7183 -93.2933 177° South 243 280 6,000 -1,800 Descending Minneapolis Center
06:30PM 44.7128 -93.2097 95° East 236 272 3,900 -1,560 Descending Minneapolis Center
06:31PM 44.7631 -93.2094 360° North 190 219 2,800 -960 Descending Minneapolis Center
06:32PM 44.8122 -93.2228 349° North 154 177 1,900 -780 Descending Minneapolis Center
06:33PM 44.8514 -93.2325 350° North 145 167 1,200 -720 Descending Minneapolis Center